Time;durP1;ratioP1;P1;durP2;ratioP2;P2;SDS_P1;SDS_P2;PMS_P1;PMS_P2;Temp;Humidity;BMP_temperature;BMP_pressure;BME280_temperature;BME280_humidity;BME280_pressure;Samples;Min_cycle;Max_cycle;Signal;HPM_P1;HPM_P2
2022/09/30 00:00:12;;;;;;;8.00;5.85;;;;;;;;;;5039347;28;20056;-66
2022/09/30 00:02:37;;;;;;;8.88;6.57;;;;;;;;;;5038893;28;20576;-66
2022/09/30 00:05:03;;;;;;;9.48;6.80;;;;;;;;;;5038144;28;20036;-66
2022/09/30 00:07:31;;;;;;;10.57;7.53;;;;;;;;;;5040136;28;21175;-65
2022/09/30 00:09:56;;;;;;;11.40;7.95;;;;;;;;;;5037425;28;20040;-64
2022/09/30 00:12:22;;;;;;;9.98;8.07;;;;;;;;;;5038914;28;20036;-67
2022/09/30 00:14:48;;;;;;;10.88;8.50;;;;;;;;;;5029407;28;20044;-65
2022/09/30 00:17:15;;;;;;;16.00;9.65;;;;;;;;;;5019175;28;20028;-65
2022/09/30 00:19:41;;;;;;;14.85;9.68;;;;;;;;;;5033843;28;20704;-66
2022/09/30 00:22:06;;;;;;;14.90;10.07;;;;;;;;;;5042202;28;20036;-67
2022/09/30 00:24:32;;;;;;;17.02;11.18;;;;;;;;;;5041920;28;20086;-65
2022/09/30 00:26:59;;;;;;;17.98;12.85;;;;;;;;;;5039808;28;20043;-65
2022/09/30 00:29:27;;;;;;;17.73;12.05;;;;;;;;;;5041155;28;20496;-67
2022/09/30 00:31:53;;;;;;;24.67;15.13;;;;;;;;;;5040271;28;20039;-66
2022/09/30 00:34:19;;;;;;;23.27;15.10;;;;;;;;;;5040573;28;20056;-67
2022/09/30 00:36:44;;;;;;;21.63;15.20;;;;;;;;;;5039894;28;20040;-65
2022/09/30 00:39:11;;;;;;;23.27;15.43;;;;;;;;;;5040636;28;20048;-65
2022/09/30 00:41:36;;;;;;;37.95;24.67;;;;;;;;;;5040598;28;21170;-65
2022/09/30 00:44:22;;;;;;;38.22;23.70;;;;;;;;;;5038934;28;20090;-66
2022/09/30 00:46:47;;;;;;;34.72;23.05;;;;;;;;;;5040142;28;20044;-66
2022/09/30 00:49:15;;;;;;;32.72;21.02;;;;;;;;;;5040118;28;20076;-66
2022/09/30 00:51:46;;;;;;;31.05;19.85;;;;;;;;;;5014387;28;20059;-66
2022/09/30 00:54:14;;;;;;;27.25;18.13;;;;;;;;;;5039841;28;20695;-65
2022/09/30 00:56:44;;;;;;;23.42;15.90;;;;;;;;;;5041063;28;20500;-65
2022/09/30 00:59:23;;;;;;;24.80;15.65;;;;;;;;;;5038770;28;21309;-64
2022/09/30 01:01:48;;;;;;;18.48;12.88;;;;;;;;;;5040622;28;20032;-66
2022/09/30 01:04:15;;;;;;;20.35;13.02;;;;;;;;;;5040503;28;20117;-65
2022/09/30 01:06:41;;;;;;;18.02;11.93;;;;;;;;;;5034263;28;20066;-65
2022/09/30 01:09:07;;;;;;;18.98;12.02;;;;;;;;;;5042867;28;20048;-66
2022/09/30 01:11:32;;;;;;;17.83;11.20;;;;;;;;;;5043145;28;20032;-66
2022/09/30 01:14:05;;;;;;;18.88;12.30;;;;;;;;;;5044135;28;20062;-66
2022/09/30 01:16:42;;;;;;;17.08;11.55;;;;;;;;;;5041708;28;20024;-66
2022/09/30 01:19:27;;;;;;;16.80;11.27;;;;;;;;;;5017210;28;20757;-65
2022/09/30 01:22:07;;;;;;;20.52;12.30;;;;;;;;;;5040994;28;20036;-67
2022/09/30 01:24:32;;;;;;;17.20;11.52;;;;;;;;;;5043035;28;20044;-66
2022/09/30 01:27:04;;;;;;;18.70;11.25;;;;;;;;;;5042270;28;20032;-65
2022/09/30 01:29:29;;;;;;;17.67;12.27;;;;;;;;;;5026205;28;20157;-66
2022/09/30 01:32:14;;;;;;;20.23;12.93;;;;;;;;;;5041143;28;20028;-66
2022/09/30 01:34:45;;;;;;;18.23;12.93;;;;;;;;;;5043116;28;20042;-65
2022/09/30 01:37:30;;;;;;;20.10;12.85;;;;;;;;;;5042353;28;20046;-65
2022/09/30 01:40:05;;;;;;;23.70;11.63;;;;;;;;;;5040596;28;20040;-65
2022/09/30 01:42:35;;;;;;;19.17;12.05;;;;;;;;;;5024046;28;20063;-65
2022/09/30 01:45:02;;;;;;;21.10;12.68;;;;;;;;;;5040998;28;20855;-65
2022/09/30 01:47:34;;;;;;;21.75;12.43;;;;;;;;;;5041786;28;20068;-65
2022/09/30 01:50:04;;;;;;;19.27;11.80;;;;;;;;;;5041016;28;20048;-66
2022/09/30 01:52:37;;;;;;;20.40;12.10;;;;;;;;;;5043379;28;20036;-65
2022/09/30 01:55:18;;;;;;;22.42;12.68;;;;;;;;;;5041403;28;20047;-66
2022/09/30 01:57:46;;;;;;;21.17;13.05;;;;;;;;;;5041000;28;20033;-66
2022/09/30 02:00:12;;;;;;;20.55;11.98;;;;;;;;;;5041447;28;20083;-66
2022/09/30 02:02:47;;;;;;;21.35;12.93;;;;;;;;;;5041483;28;20060;-67
2022/09/30 02:05:22;;;;;;;22.85;13.15;;;;;;;;;;5041412;28;20040;-67
2022/09/30 02:07:57;;;;;;;20.05;12.30;;;;;;;;;;5041477;28;20036;-67
2022/09/30 02:10:24;;;;;;;20.45;12.65;;;;;;;;;;5042167;28;20151;-65
2022/09/30 02:13:22;;;;;;;20.15;11.80;;;;;;;;;;5040382;28;20117;-66
2022/09/30 02:15:58;;;;;;;18.88;11.57;;;;;;;;;;5035342;28;20129;-66
2022/09/30 02:18:30;;;;;;;18.10;11.70;;;;;;;;;;5041003;28;20036;-66
2022/09/30 02:20:59;;;;;;;19.17;11.80;;;;;;;;;;5041270;28;20089;-66
2022/09/30 02:23:30;;;;;;;21.50;12.45;;;;;;;;;;5041131;28;20041;-66
2022/09/30 02:26:05;;;;;;;19.95;12.35;;;;;;;;;;5041101;28;20072;-66
2022/09/30 02:28:33;;;;;;;20.70;11.68;;;;;;;;;;5039944;28;20056;-66
2022/09/30 02:30:59;;;;;;;16.33;11.13;;;;;;;;;;5042230;28;20812;-65
2022/09/30 02:33:37;;;;;;;22.50;11.52;;;;;;;;;;5041218;28;20047;-66
2022/09/30 02:36:23;;;;;;;21.63;11.63;;;;;;;;;;5038741;28;20040;-66
2022/09/30 02:38:53;;;;;;;17.77;11.20;;;;;;;;;;5039632;28;20259;-66
2022/09/30 02:41:22;;;;;;;18.50;11.00;;;;;;;;;;5039473;28;20082;-67
2022/09/30 02:43:49;;;;;;;20.75;10.98;;;;;;;;;;5032836;28;20062;-67
2022/09/30 02:46:19;;;;;;;19.50;11.38;;;;;;;;;;5015175;28;21066;-66
2022/09/30 02:49:03;;;;;;;17.13;11.05;;;;;;;;;;5041167;28;20028;-66
2022/09/30 02:51:40;;;;;;;19.05;11.07;;;;;;;;;;5022226;28;20043;-66
2022/09/30 02:54:05;;;;;;;19.77;11.20;;;;;;;;;;5039801;28;20040;-66
2022/09/30 02:56:53;;;;;;;18.85;10.57;;;;;;;;;;5040346;28;20139;-65
2022/09/30 02:59:19;;;;;;;17.98;10.05;;;;;;;;;;5026414;28;20036;-66
2022/09/30 03:01:46;;;;;;;17.60;10.38;;;;;;;;;;5040692;28;20036;-64
2022/09/30 03:04:12;;;;;;;16.77;10.73;;;;;;;;;;5039874;28;20040;-66
2022/09/30 03:06:38;;;;;;;19.70;10.40;;;;;;;;;;5041422;28;21114;-65
2022/09/30 03:09:04;;;;;;;20.88;11.55;;;;;;;;;;5014976;28;20043;-66
2022/09/30 03:11:30;;;;;;;29.50;14.88;;;;;;;;;;5041128;28;20032;-66
2022/09/30 03:13:58;;;;;;;25.52;15.32;;;;;;;;;;5040765;28;20039;-66
2022/09/30 03:16:42;;;;;;;30.23;18.38;;;;;;;;;;5016153;28;20043;-65
2022/09/30 03:19:22;;;;;;;32.25;20.73;;;;;;;;;;5032076;28;20777;-66
2022/09/30 03:22:08;;;;;;;36.60;21.13;;;;;;;;;;5015063;28;20037;-66
2022/09/30 03:24:45;;;;;;;39.58;24.05;;;;;;;;;;5016301;28;20043;-66
2022/09/30 03:27:15;;;;;;;36.03;24.60;;;;;;;;;;5039716;28;20028;-66
2022/09/30 03:29:51;;;;;;;38.25;25.77;;;;;;;;;;5038888;28;20175;-66
2022/09/30 03:32:19;;;;;;;36.92;25.30;;;;;;;;;;5022611;28;20315;-67
2022/09/30 03:34:57;;;;;;;38.65;26.85;;;;;;;;;;5039173;28;20925;-66
2022/09/30 03:37:29;;;;;;;32.60;23.85;;;;;;;;;;5040012;28;20718;-66
2022/09/30 03:39:58;;;;;;;36.28;25.73;;;;;;;;;;5040884;28;20556;-66
2022/09/30 03:42:25;;;;;;;32.00;24.23;;;;;;;;;;5039001;28;20739;-66
2022/09/30 03:45:03;;;;;;;29.60;22.50;;;;;;;;;;5040931;28;20039;-66
2022/09/30 03:47:31;;;;;;;33.75;23.48;;;;;;;;;;5040186;28;21047;-66
2022/09/30 03:49:59;;;;;;;31.65;22.17;;;;;;;;;;5039424;28;20657;-66
2022/09/30 03:52:26;;;;;;;31.73;20.70;;;;;;;;;;5039867;28;20028;-66
2022/09/30 03:54:57;;;;;;;31.33;20.80;;;;;;;;;;5039875;28;20082;-66
2022/09/30 03:57:28;;;;;;;26.90;19.55;;;;;;;;;;5015440;28;20059;-66
2022/09/30 03:59:53;;;;;;;23.25;15.45;;;;;;;;;;5039441;28;20043;-65
2022/09/30 04:02:19;;;;;;;22.00;14.98;;;;;;;;;;5021653;28;20028;-66
2022/09/30 04:04:44;;;;;;;21.30;13.50;;;;;;;;;;5039735;28;20043;-66
2022/09/30 04:07:10;;;;;;;18.20;11.73;;;;;;;;;;5039748;28;20636;-66
2022/09/30 04:09:36;;;;;;;15.05;10.18;;;;;;;;;;5038435;28;20040;-66
2022/09/30 04:12:02;;;;;;;17.95;10.85;;;;;;;;;;5056171;28;20028;-67
2022/09/30 04:14:27;;;;;;;18.30;10.05;;;;;;;;;;5039126;28;20036;-66
2022/09/30 04:16:52;;;;;;;15.07;9.82;;;;;;;;;;5039239;28;20032;-66
2022/09/30 04:19:20;;;;;;;15.60;9.25;;;;;;;;;;5027110;28;20047;-66
2022/09/30 04:21:46;;;;;;;16.52;8.38;;;;;;;;;;5040119;28;20036;-65
2022/09/30 04:24:11;;;;;;;15.10;8.38;;;;;;;;;;5039709;28;20044;-66
2022/09/30 04:26:36;;;;;;;12.90;8.52;;;;;;;;;;5038955;28;20137;-66
2022/09/30 04:29:02;;;;;;;15.23;9.50;;;;;;;;;;5038261;28;20036;-66
2022/09/30 04:31:30;;;;;;;17.60;9.20;;;;;;;;;;5039445;28;20028;-65
2022/09/30 04:33:55;;;;;;;16.00;9.82;;;;;;;;;;5040480;28;20117;-66
2022/09/30 04:36:21;;;;;;;13.75;8.18;;;;;;;;;;5054111;28;22300;-66
2022/09/30 04:38:49;;;;;;;17.52;10.13;;;;;;;;;;5039688;28;20031;-66
2022/09/30 04:41:16;;;;;;;18.92;11.10;;;;;;;;;;5037380;28;20032;-65
2022/09/30 04:43:45;;;;;;;25.77;14.38;;;;;;;;;;5019080;28;20032;-66
2022/09/30 04:46:18;;;;;;;26.40;15.82;;;;;;;;;;5037519;28;20099;-66
2022/09/30 04:48:47;;;;;;;30.83;19.27;;;;;;;;;;5038791;28;21198;-66
2022/09/30 04:51:15;;;;;;;44.85;25.00;;;;;;;;;;5038656;28;20055;-68
2022/09/30 04:53:41;;;;;;;34.92;25.08;;;;;;;;;;5039782;28;20061;-65
2022/09/30 04:56:07;;;;;;;34.60;25.35;;;;;;;;;;5039322;28;20051;-66
2022/09/30 04:58:32;;;;;;;34.67;23.75;;;;;;;;;;5014975;28;20048;-66
2022/09/30 05:01:24;;;;;;;31.83;21.90;;;;;;;;;;5020631;28;20066;-66
2022/09/30 05:03:49;;;;;;;28.25;20.83;;;;;;;;;;5040961;28;20036;-66
2022/09/30 05:06:15;;;;;;;32.97;23.42;;;;;;;;;;5025222;28;20036;-67
2022/09/30 05:08:43;;;;;;;27.33;22.33;;;;;;;;;;5043472;28;20047;-66
2022/09/30 05:11:12;;;;;;;36.10;25.30;;;;;;;;;;5058362;28;20040;-66
2022/09/30 05:13:38;;;;;;;35.92;26.02;;;;;;;;;;5043896;28;20043;-66
2022/09/30 05:16:09;;;;;;;;;;;;;;;;;;5042958;28;20120;-66
2022/09/30 05:18:35;;;;;;;40.30;26.08;;;;;;;;;;5021873;28;20035;-65
2022/09/30 05:21:01;;;;;;;39.65;27.27;;;;;;;;;;5041469;28;20066;-67
2022/09/30 05:23:27;;;;;;;44.10;27.58;;;;;;;;;;5042192;28;20047;-68
2022/09/30 05:25:52;;;;;;;43.42;28.88;;;;;;;;;;5042480;28;20126;-68
2022/09/30 05:28:18;;;;;;;48.92;29.20;;;;;;;;;;5028640;28;20462;-67
2022/09/30 05:30:44;;;;;;;57.17;32.15;;;;;;;;;;5041284;28;20121;-68
2022/09/30 05:33:10;;;;;;;68.03;39.72;;;;;;;;;;5040995;28;20069;-67
2022/09/30 05:35:35;;;;;;;68.85;40.22;;;;;;;;;;5042727;28;20056;-67
2022/09/30 05:38:03;;;;;;;73.13;43.45;;;;;;;;;;5043376;28;21113;-67
2022/09/30 05:40:28;;;;;;;79.72;46.95;;;;;;;;;;5043247;28;20032;-67
2022/09/30 05:42:55;;;;;;;54.30;34.38;;;;;;;;;;5042705;28;20044;-66
2022/09/30 05:45:23;;;;;;;31.13;22.90;;;;;;;;;;5041872;28;20072;-67
2022/09/30 05:47:52;;;;;;;28.23;17.98;;;;;;;;;;5044578;28;20046;-67
2022/09/30 05:50:18;;;;;;;24.80;14.80;;;;;;;;;;5043845;28;20172;-68
2022/09/30 05:52:43;;;;;;;21.73;14.73;;;;;;;;;;5030757;28;20105;-67
2022/09/30 05:55:08;;;;;;;27.17;16.33;;;;;;;;;;5044027;28;20121;-67
2022/09/30 05:57:35;;;;;;;39.78;21.25;;;;;;;;;;5043244;28;20036;-68
2022/09/30 06:00:03;;;;;;;43.80;22.35;;;;;;;;;;5040494;28;20063;-67
2022/09/30 06:02:31;;;;;;;35.75;21.90;;;;;;;;;;5039816;28;20037;-68
2022/09/30 06:05:01;;;;;;;43.60;27.10;;;;;;;;;;5039819;28;20044;-68
2022/09/30 06:07:27;;;;;;;59.15;33.67;;;;;;;;;;5041257;28;20033;-67
2022/09/30 06:09:52;;;;;;;45.75;30.42;;;;;;;;;;5056726;28;20782;-67
2022/09/30 06:12:17;;;;;;;38.85;23.52;;;;;;;;;;5040053;28;20128;-68
2022/09/30 06:14:43;;;;;;;38.60;22.00;;;;;;;;;;5039115;28;20043;-66
2022/09/30 06:17:08;;;;;;;24.10;16.27;;;;;;;;;;5041097;28;20878;-67
2022/09/30 06:19:33;;;;;;;27.83;16.52;;;;;;;;;;5041201;28;20040;-68
2022/09/30 06:21:59;;;;;;;30.80;21.02;;;;;;;;;;5040690;28;20047;-67
2022/09/30 06:24:24;;;;;;;25.98;15.18;;;;;;;;;;5040982;28;22216;-67
2022/09/30 06:26:49;;;;;;;18.95;10.88;;;;;;;;;;5040625;28;20169;-67
2022/09/30 06:29:15;;;;;;;16.00;7.70;;;;;;;;;;5032527;28;20244;-67
2022/09/30 06:31:40;;;;;;;16.27;5.97;;;;;;;;;;5034446;28;20127;-68
2022/09/30 06:34:05;;;;;;;13.55;4.40;;;;;;;;;;5040022;28;20109;-68
2022/09/30 06:36:34;;;;;;;9.90;3.97;;;;;;;;;;5040564;28;22506;-66
2022/09/30 06:39:02;;;;;;;15.30;5.43;;;;;;;;;;5029223;28;20051;-67
2022/09/30 06:41:30;;;;;;;14.73;6.43;;;;;;;;;;5039911;28;20042;-67
2022/09/30 06:43:56;;;;;;;14.98;8.18;;;;;;;;;;5045653;28;20294;-68
2022/09/30 06:46:23;;;;;;;13.95;6.05;;;;;;;;;;5039258;28;20028;-67
2022/09/30 06:48:55;;;;;;;14.32;5.18;;;;;;;;;;5041753;28;20047;-68
2022/09/30 06:51:20;;;;;;;12.00;5.05;;;;;;;;;;5038545;28;20117;-66
2022/09/30 06:53:52;;;;;;;15.32;5.40;;;;;;;;;;5041656;28;20048;-66
2022/09/30 06:56:18;;;;;;;11.85;4.78;;;;;;;;;;5039870;28;20206;-67
2022/09/30 06:58:46;;;;;;;14.95;5.50;;;;;;;;;;5041274;28;20365;-67
2022/09/30 07:01:14;;;;;;;17.15;9.43;;;;;;;;;;5020593;28;20036;-67
2022/09/30 07:03:40;;;;;;;20.80;9.98;;;;;;;;;;5036877;28;20032;-67
2022/09/30 07:06:05;;;;;;;21.60;8.60;;;;;;;;;;5036687;28;20036;-69
2022/09/30 07:08:35;;;;;;;15.02;7.18;;;;;;;;;;5036948;28;20823;-66
2022/09/30 07:11:03;;;;;;;11.68;5.10;;;;;;;;;;5036866;28;20050;-67
2022/09/30 07:13:29;;;;;;;3.95;2.28;;;;;;;;;;5036972;28;20177;-68
2022/09/30 07:15:55;;;;;;;8.68;2.90;;;;;;;;;;5036044;28;20237;-67
2022/09/30 07:18:26;;;;;;;6.50;3.10;;;;;;;;;;5023489;28;20055;-67
2022/09/30 07:20:52;;;;;;;6.97;2.80;;;;;;;;;;5027443;28;20147;-66
2022/09/30 07:23:18;;;;;;;10.02;3.60;;;;;;;;;;5037606;28;21620;-68
2022/09/30 07:26:01;;;;;;;8.25;3.97;;;;;;;;;;5035835;28;20293;-68
2022/09/30 07:28:30;;;;;;;7.82;3.78;;;;;;;;;;5036229;28;20532;-68
2022/09/30 07:30:56;;;;;;;7.80;3.78;;;;;;;;;;5035812;28;20036;-68
2022/09/30 07:33:22;;;;;;;4.32;2.75;;;;;;;;;;5035449;28;20149;-67
2022/09/30 07:35:52;;;;;;;5.22;2.88;;;;;;;;;;5035816;28;20051;-67
2022/09/30 07:38:18;;;;;;;4.72;2.03;;;;;;;;;;5035637;28;20036;-67
2022/09/30 07:40:53;;;;;;;3.80;2.13;;;;;;;;;;5038347;28;20572;-66
2022/09/30 07:43:20;;;;;;;3.13;1.52;;;;;;;;;;5035891;28;20040;-67
2022/09/30 07:45:46;;;;;;;3.95;1.80;;;;;;;;;;5037337;28;20043;-66
2022/09/30 07:48:41;;;;;;;6.15;2.03;;;;;;;;;;5039244;28;20044;-67
2022/09/30 07:50:59;;;;;;;4.18;1.63;;;;;;;;;;5020254;28;20048;-66
2022/09/30 07:53:24;;;;;;;3.88;2.00;;;;;;;;;;5027589;28;20123;-65
2022/09/30 07:55:50;;;;;;;3.42;1.33;;;;;;;;;;5040520;28;20040;-64
2022/09/30 07:58:17;;;;;;;5.80;2.05;;;;;;;;;;5039362;28;20033;-66
2022/09/30 08:00:45;;;;;;;4.65;2.00;;;;;;;;;;5034564;28;20036;-66
2022/09/30 08:03:10;;;;;;;5.40;2.33;;;;;;;;;;5036746;28;20070;-65
2022/09/30 08:05:39;;;;;;;5.20;2.00;;;;;;;;;;5033387;28;20552;-66
2022/09/30 08:08:07;;;;;;;4.00;1.90;;;;;;;;;;5035413;28;20545;-65
2022/09/30 08:10:33;;;;;;;3.53;1.98;;;;;;;;;;5051682;28;20043;-66
2022/09/30 08:12:58;;;;;;;4.00;2.30;;;;;;;;;;5037350;28;20037;-66
2022/09/30 08:15:24;;;;;;;5.25;2.47;;;;;;;;;;5035490;28;20363;-66
2022/09/30 08:17:49;;;;;;;5.00;2.15;;;;;;;;;;5036324;28;20446;-66
2022/09/30 08:20:17;;;;;;;5.85;3.08;;;;;;;;;;5024017;28;20059;-66
2022/09/30 08:22:42;;;;;;;6.78;2.72;;;;;;;;;;5036091;28;20032;-67
2022/09/30 08:25:07;;;;;;;5.38;2.17;;;;;;;;;;5034562;28;20028;-66
2022/09/30 08:27:35;;;;;;;5.28;2.00;;;;;;;;;;5033544;28;20032;-66
2022/09/30 08:30:00;;;;;;;4.63;1.88;;;;;;;;;;5032563;28;20585;-66
2022/09/30 08:32:28;;;;;;;6.38;1.80;;;;;;;;;;5034454;28;20040;-65
2022/09/30 08:34:53;;;;;;;7.60;2.53;;;;;;;;;;5036107;28;20036;-66
2022/09/30 08:37:19;;;;;;;6.75;2.42;;;;;;;;;;5021590;28;20294;-66
2022/09/30 08:39:45;;;;;;;4.32;2.10;;;;;;;;;;5036561;28;20092;-66
2022/09/30 08:42:19;;;;;;;4.90;2.60;;;;;;;;;;5037064;28;20047;-67
2022/09/30 08:44:46;;;;;;;4.85;2.33;;;;;;;;;;5038102;28;20458;-65
2022/09/30 08:47:21;;;;;;;6.03;3.33;;;;;;;;;;5040239;28;20650;-65
2022/09/30 08:50:05;;;;;;;6.50;3.13;;;;;;;;;;5037505;28;20040;-66
2022/09/30 08:52:35;;;;;;;5.15;2.10;;;;;;;;;;5039445;28;20131;-65
2022/09/30 08:55:00;;;;;;;3.10;2.00;;;;;;;;;;5009177;28;20040;-65
2022/09/30 08:57:31;;;;;;;6.65;2.83;;;;;;;;;;5025874;28;20036;-66
2022/09/30 09:00:00;;;;;;;5.47;2.13;;;;;;;;;;5024006;28;20404;-67
2022/09/30 09:02:33;;;;;;;4.38;1.85;;;;;;;;;;5038161;28;20135;-67
2022/09/30 09:05:03;;;;;;;4.72;1.73;;;;;;;;;;5038614;28;20113;-67
2022/09/30 09:07:28;;;;;;;5.30;2.50;;;;;;;;;;5040085;28;20032;-67
2022/09/30 09:10:06;;;;;;;6.72;1.90;;;;;;;;;;5039649;28;20101;-66
2022/09/30 09:12:50;;;;;;;4.82;1.67;;;;;;;;;;5038535;28;20333;-66
2022/09/30 09:15:20;;;;;;;5.47;2.20;;;;;;;;;;5038850;28;20375;-65
2022/09/30 09:17:48;;;;;;;3.33;1.52;;;;;;;;;;5039676;28;20036;-66
2022/09/30 09:20:15;;;;;;;3.28;1.38;;;;;;;;;;5039161;28;20129;-66
2022/09/30 09:22:42;;;;;;;4.18;1.65;;;;;;;;;;5040529;28;20040;-66
2022/09/30 09:25:18;;;;;;;5.70;1.92;;;;;;;;;;5036288;28;20163;-67
2022/09/30 09:27:44;;;;;;;4.00;1.80;;;;;;;;;;5040800;28;20262;-66
2022/09/30 09:30:11;;;;;;;7.45;1.80;;;;;;;;;;5038712;28;20301;-66
2022/09/30 09:32:39;;;;;;;6.65;1.70;;;;;;;;;;5025471;28;20853;-67
2022/09/30 09:35:15;;;;;;;4.50;1.27;;;;;;;;;;5037266;28;20040;-67
2022/09/30 09:41:02;;;;;;;5.05;1.38;;;;;;;;;;5017187;28;20048;-65
2022/09/30 09:43:48;;;;;;;2.70;1.10;;;;;;;;;;5035592;28;21396;-66
2022/09/30 09:46:19;;;;;;;5.15;1.73;;;;;;;;;;5050836;28;20138;-66
2022/09/30 09:48:44;;;;;;;3.83;1.30;;;;;;;;;;5038006;28;20089;-67
2022/09/30 09:51:10;;;;;;;3.22;1.90;;;;;;;;;;5036228;28;20052;-67
2022/09/30 09:53:52;;;;;;;3.10;1.77;;;;;;;;;;5042097;28;20097;-65
2022/09/30 09:56:19;;;;;;;7.53;1.30;;;;;;;;;;5041062;28;20032;-67
2022/09/30 09:59:04;;;;;;;5.90;2.10;;;;;;;;;;5042650;28;20047;-66
2022/09/30 10:01:33;;;;;;;3.72;1.80;;;;;;;;;;5029686;28;20040;-66
2022/09/30 10:04:08;;;;;;;3.38;1.88;;;;;;;;;;5043042;28;22280;-67
2022/09/30 10:06:46;;;;;;;4.72;2.17;;;;;;;;;;5041607;28;20032;-66
2022/09/30 10:09:22;;;;;;;4.72;1.92;;;;;;;;;;5042733;28;20044;-65
2022/09/30 10:11:48;;;;;;;5.63;2.40;;;;;;;;;;5042531;28;20741;-65
2022/09/30 10:14:18;;;;;;;5.60;2.95;;;;;;;;;;5043031;28;20036;-65
2022/09/30 10:16:45;;;;;;;6.50;3.72;;;;;;;;;;5026200;28;20032;-65
2022/09/30 10:19:24;;;;;;;5.85;3.92;;;;;;;;;;5041465;28;20098;-65
2022/09/30 10:21:49;;;;;;;11.50;4.85;;;;;;;;;;5037296;28;20155;-63
2022/09/30 10:24:33;;;;;;;8.43;4.88;;;;;;;;;;5041322;28;21260;-64
2022/09/30 10:26:58;;;;;;;6.70;3.75;;;;;;;;;;5037379;28;20756;-65
2022/09/30 10:29:30;;;;;;;8.98;4.80;;;;;;;;;;5036049;28;20038;-66
2022/09/30 10:31:59;;;;;;;6.10;3.25;;;;;;;;;;5022186;28;20027;-66
2022/09/30 10:34:33;;;;;;;9.05;4.50;;;;;;;;;;5035945;28;20780;-68
2022/09/30 10:37:00;;;;;;;10.07;5.47;;;;;;;;;;5035830;28;20328;-65
2022/09/30 10:39:25;;;;;;;8.75;5.57;;;;;;;;;;5037639;28;20028;-65
2022/09/30 10:42:06;;;;;;;8.35;6.00;;;;;;;;;;5035879;28;20512;-66
2022/09/30 10:44:35;;;;;;;8.77;5.28;;;;;;;;;;5037371;28;20033;-66
2022/09/30 10:47:01;;;;;;;10.38;6.43;;;;;;;;;;5035147;28;20098;-65
2022/09/30 10:49:33;;;;;;;10.18;6.80;;;;;;;;;;5036611;28;20032;-65
2022/09/30 10:51:59;;;;;;;12.95;7.97;;;;;;;;;;5035782;28;20029;-66
2022/09/30 10:54:35;;;;;;;8.15;4.60;;;;;;;;;;5035201;28;20032;-66
2022/09/30 10:57:03;;;;;;;11.25;4.80;;;;;;;;;;5036441;28;20498;-66
2022/09/30 10:59:31;;;;;;;7.47;4.03;;;;;;;;;;5027398;28;20707;-66
2022/09/30 11:02:02;;;;;;;6.38;3.20;;;;;;;;;;5035227;28;20044;-66
2022/09/30 11:04:31;;;;;;;6.53;3.67;;;;;;;;;;5036114;28;20510;-65
2022/09/30 11:07:25;;;;;;;7.45;4.30;;;;;;;;;;5035688;28;20043;-65
2022/09/30 11:09:57;;;;;;;5.30;2.00;;;;;;;;;;5035686;28;20327;-66
2022/09/30 11:12:37;;;;;;;3.75;0.90;;;;;;;;;;5037352;28;20047;-66
2022/09/30 11:15:17;;;;;;;4.35;1.70;;;;;;;;;;5036917;28;20035;-65
2022/09/30 11:18:06;;;;;;;5.72;1.10;;;;;;;;;;5038168;28;20036;-65
2022/09/30 11:20:37;;;;;;;8.07;3.72;;;;;;;;;;5039028;28;20038;-65
2022/09/30 11:23:23;;;;;;;11.00;3.55;;;;;;;;;;5039013;28;20580;-65
2022/09/30 11:26:11;;;;;;;5.03;1.00;;;;;;;;;;5038730;28;20485;-65
2022/09/30 11:28:36;;;;;;;9.77;4.82;;;;;;;;;;5028060;28;20071;-65
2022/09/30 11:31:20;;;;;;;7.93;4.50;;;;;;;;;;5043730;28;20048;-65
2022/09/30 11:33:52;;;;;;;9.88;3.70;;;;;;;;;;5044393;28;20040;-65
2022/09/30 11:36:25;;;;;;;6.03;1.40;;;;;;;;;;5044023;28;20130;-64
2022/09/30 11:38:56;;;;;;;3.88;0.75;;;;;;;;;;5043186;28;20133;-66
2022/09/30 11:41:36;;;;;;;6.22;0.90;;;;;;;;;;5043064;28;20036;-66
2022/09/30 11:44:08;;;;;;;9.60;1.02;;;;;;;;;;5041069;28;20059;-66
2022/09/30 11:46:44;;;;;;;6.15;1.10;;;;;;;;;;5040543;28;20379;-68
2022/09/30 11:49:22;;;;;;;6.78;1.23;;;;;;;;;;5038281;28;20039;-65
2022/09/30 11:51:47;;;;;;;10.27;1.25;;;;;;;;;;5029913;28;20036;-66
2022/09/30 11:54:33;;;;;;;6.28;1.50;;;;;;;;;;5039617;28;20276;-65
2022/09/30 11:57:05;;;;;;;5.57;1.25;;;;;;;;;;5041305;28;20036;-67
2022/09/30 11:59:37;;;;;;;7.78;1.52;;;;;;;;;;5027722;28;20267;-66
2022/09/30 12:02:03;;;;;;;8.82;1.67;;;;;;;;;;5021112;28;20556;-65
2022/09/30 12:04:36;;;;;;;7.70;2.63;;;;;;;;;;5038637;28;20192;-65
2022/09/30 12:07:10;;;;;;;7.00;2.27;;;;;;;;;;5038128;28;20411;-65
2022/09/30 12:09:40;;;;;;;7.88;2.08;;;;;;;;;;5040009;28;20569;-65
2022/09/30 12:12:08;;;;;;;7.15;2.03;;;;;;;;;;5038733;28;20117;-65
2022/09/30 12:14:54;;;;;;;5.97;1.55;;;;;;;;;;5039170;28;20032;-65
2022/09/30 12:17:19;;;;;;;9.10;1.50;;;;;;;;;;5037180;28;20413;-65
2022/09/30 12:19:47;;;;;;;4.57;1.27;;;;;;;;;;5038892;28;20040;-65
2022/09/30 12:22:20;;;;;;;5.10;1.20;;;;;;;;;;5039887;28;20217;-66
2022/09/30 12:24:46;;;;;;;3.88;1.73;;;;;;;;;;5039017;28;20546;-66
2022/09/30 12:27:24;;;;;;;8.70;3.15;;;;;;;;;;5038219;28;20032;-66
2022/09/30 12:32:50;;;;;;;5.55;1.30;;;;;;;;;;5038902;28;20310;-65
2022/09/30 12:35:19;;;;;;;3.25;0.90;;;;;;;;;;5039120;28;20341;-64
2022/09/30 12:37:56;;;;;;;5.78;1.40;;;;;;;;;;5037740;28;20040;-65
2022/09/30 12:40:41;;;;;;;5.15;1.20;;;;;;;;;;5039860;28;20097;-66
2022/09/30 12:43:22;;;;;;;7.60;3.20;;;;;;;;;;5040758;28;20036;-66
2022/09/30 12:45:53;;;;;;;7.57;1.50;;;;;;;;;;5039510;28;20043;-66
2022/09/30 12:48:25;;;;;;;9.13;3.53;;;;;;;;;;5042487;28;20625;-65
2022/09/30 12:50:52;;;;;;;5.90;1.30;;;;;;;;;;5041102;28;20145;-65
2022/09/30 12:53:24;;;;;;;7.03;2.00;;;;;;;;;;5023931;28;20505;-67
2022/09/30 12:55:49;;;;;;;;;;;;;;;;;;5039234;28;20040;-67
2022/09/30 12:58:19;;;;;;;6.05;1.35;;;;;;;;;;5042412;28;19946;-67
2022/09/30 13:00:59;;;;;;;5.90;2.13;;;;;;;;;;5033839;28;20296;-67
2022/09/30 13:03:24;;;;;;;8.70;2.50;;;;;;;;;;5043256;28;20090;-67
2022/09/30 13:05:52;;;;;;;13.60;4.00;;;;;;;;;;5036684;28;20263;-66
2022/09/30 13:08:17;;;;;;;9.18;3.03;;;;;;;;;;5037007;28;20029;-66
2022/09/30 13:10:43;;;;;;;13.05;3.70;;;;;;;;;;5038485;28;20046;-67
2022/09/30 13:13:18;;;;;;;10.15;3.25;;;;;;;;;;5040130;28;20039;-65
2022/09/30 13:16:05;;;;;;;10.82;3.20;;;;;;;;;;4959237;28;20042;-66
2022/09/30 13:18:30;;;;;;;8.70;2.70;;;;;;;;;;4960119;28;20065;-66
2022/09/30 13:21:14;;;;;;;9.15;3.20;;;;;;;;;;4958679;28;20034;-66
2022/09/30 13:23:41;;;;;;;13.07;5.55;;;;;;;;;;4959727;28;20026;-65
2022/09/30 13:26:21;;;;;;;16.85;6.20;;;;;;;;;;4961530;28;20553;-64
2022/09/30 13:28:47;;;;;;;18.48;6.10;;;;;;;;;;4963676;28;22186;-65
2022/09/30 13:31:14;;;;;;;14.25;3.10;;;;;;;;;;4966634;28;20049;-68
2022/09/30 13:33:41;;;;;;;11.23;2.35;;;;;;;;;;4981388;28;20261;-66
2022/09/30 13:36:15;;;;;;;13.68;2.78;;;;;;;;;;4962962;28;20117;-66
2022/09/30 13:38:41;;;;;;;8.35;2.00;;;;;;;;;;4964712;28;20093;-66
2022/09/30 13:41:13;;;;;;;10.52;2.83;;;;;;;;;;4963655;28;21033;-69
2022/09/30 13:43:46;;;;;;;15.63;5.07;;;;;;;;;;4963978;28;20046;-66
2022/09/30 13:46:33;;;;;;;19.20;3.25;;;;;;;;;;4977440;28;20033;-68
2022/09/30 13:49:24;;;;;;;8.88;3.00;;;;;;;;;;5046656;28;20046;-67
2022/09/30 13:51:51;;;;;;;12.85;3.20;;;;;;;;;;5028783;28;20040;-67
2022/09/30 13:54:26;;;;;;;15.10;3.10;;;;;;;;;;5037861;28;20094;-65
2022/09/30 13:56:52;;;;;;;12.88;2.88;;;;;;;;;;5061981;27;20035;-67
2022/09/30 13:59:20;;;;;;;15.60;3.58;;;;;;;;;;5046436;28;20032;-68
2022/09/30 14:02:13;;;;;;;12.55;3.22;;;;;;;;;;5045935;28;20040;-67
2022/09/30 14:04:39;;;;;;;11.82;3.17;;;;;;;;;;5047266;28;20039;-66
2022/09/30 14:07:30;;;;;;;15.32;3.58;;;;;;;;;;5044920;28;20032;-65
2022/09/30 14:10:01;;;;;;;10.57;2.70;;;;;;;;;;5045991;28;20063;-66
2022/09/30 14:12:43;;;;;;;12.35;1.95;;;;;;;;;;5060439;28;20034;-67
2022/09/30 14:15:18;;;;;;;16.55;2.00;;;;;;;;;;5058588;28;20769;-66
2022/09/30 14:18:02;;;;;;;13.15;2.55;;;;;;;;;;5043735;28;20155;-65
2022/09/30 14:20:39;;;;;;;10.75;2.30;;;;;;;;;;5041520;28;20158;-66
2022/09/30 14:23:11;;;;;;;12.32;2.28;;;;;;;;;;5044458;28;20048;-66
2022/09/30 14:25:40;;;;;;;13.88;2.30;;;;;;;;;;5024862;28;20155;-66
2022/09/30 14:28:12;;;;;;;10.75;1.92;;;;;;;;;;5042027;28;20914;-67
2022/09/30 14:30:39;;;;;;;18.38;2.47;;;;;;;;;;5042945;28;21117;-66
2022/09/30 14:33:09;;;;;;;13.98;2.67;;;;;;;;;;5041737;28;20129;-65
2022/09/30 14:35:40;;;;;;;9.82;2.25;;;;;;;;;;5042429;28;20037;-65
2022/09/30 14:38:26;;;;;;;11.73;2.50;;;;;;;;;;5040449;28;20039;-65
2022/09/30 14:40:53;;;;;;;10.73;2.25;;;;;;;;;;5044802;28;20060;-65
2022/09/30 14:43:20;;;;;;;11.82;2.42;;;;;;;;;;5019774;28;20044;-66
2022/09/30 14:45:49;;;;;;;10.07;2.10;;;;;;;;;;5044538;28;20052;-67
2022/09/30 14:48:15;;;;;;;15.85;2.55;;;;;;;;;;5042965;28;20044;-66
2022/09/30 14:50:47;;;;;;;19.63;2.67;;;;;;;;;;5042877;28;21026;-65
2022/09/30 14:53:24;;;;;;;11.70;2.00;;;;;;;;;;5042773;28;20052;-66
2022/09/30 14:55:51;;;;;;;10.50;2.05;;;;;;;;;;5046151;28;20079;-66